Time;durP1;ratioP1;P1;durP2;ratioP2;P2;SDS_P1;SDS_P2;PMS_P1;PMS_P2;Temp;Humidity;BMP_temperature;BMP_pressure;BME280_temperature;BME280_humidity;BME280_pressure;Samples;Min_cycle;Max_cycle;Signal;HPM_P1;HPM_P2
2022/01/29 00:01:05;;;;;;;29.58;7.85;;;8.50;99.90;;;;;;5053398;28;20031;-70
2022/01/29 00:03:31;;;;;;;26.23;8.02;;;8.50;99.90;;;;;;5053365;28;20056;-73
2022/01/29 00:05:58;;;;;;;30.25;7.68;;;8.50;99.90;;;;;;5054577;28;20028;-69
2022/01/29 00:08:24;;;;;;;42.00;8.30;;;8.50;99.90;;;;;;5053565;28;20029;-72
2022/01/29 00:10:55;;;;;;;33.63;8.23;;;8.50;99.90;;;;;;5053579;28;20528;-71
2022/01/29 00:13:21;;;;;;;30.05;7.28;;;8.60;99.90;;;;;;5053250;28;20463;-72
2022/01/29 00:15:46;;;;;;;26.80;6.78;;;8.60;99.90;;;;;;5035463;28;20103;-71
2022/01/29 00:18:12;;;;;;;32.70;7.05;;;8.60;99.90;;;;;;5054405;28;20052;-70
2022/01/29 00:20:38;;;;;;;31.88;7.82;;;8.60;99.90;;;;;;5053377;28;20040;-70
2022/01/29 00:23:03;;;;;;;30.45;6.57;;;8.60;99.90;;;;;;5070480;28;20032;-70
2022/01/29 00:25:29;;;;;;;25.25;6.35;;;8.70;99.90;;;;;;5072896;28;20028;-69
2022/01/29 00:27:57;;;;;;;22.98;5.90;;;8.60;99.90;;;;;;5071777;28;20476;-73
2022/01/29 00:30:29;;;;;;;24.75;6.13;;;8.60;99.90;;;;;;5073163;28;20024;-71
2022/01/29 00:32:55;;;;;;;24.90;6.72;;;8.70;99.90;;;;;;5055207;28;20058;-71
2022/01/29 00:35:21;;;;;;;24.42;6.15;;;8.70;99.90;;;;;;5071985;28;20029;-70
2022/01/29 00:37:47;;;;;;;28.27;6.75;;;8.70;99.90;;;;;;5054272;28;20048;-69
2022/01/29 00:40:13;;;;;;;26.25;5.68;;;8.80;99.90;;;;;;5052685;28;20029;-71
2022/01/29 00:42:39;;;;;;;17.13;5.65;;;8.80;99.90;;;;;;5052720;28;20033;-73
2022/01/29 00:45:06;;;;;;;25.25;6.40;;;8.80;99.90;;;;;;5052894;28;20039;-72
2022/01/29 00:47:32;;;;;;;19.63;5.47;;;8.80;99.90;;;;;;5060613;28;20025;-70
2022/01/29 00:49:57;;;;;;;23.35;6.43;;;8.80;99.90;;;;;;5072497;28;20060;-71
2022/01/29 00:52:23;;;;;;;31.70;7.63;;;8.80;99.90;;;;;;5062486;28;20033;-69
2022/01/29 00:54:49;;;;;;;31.45;7.53;;;8.80;99.90;;;;;;5034539;28;20120;-72
2022/01/29 00:57:14;;;;;;;24.33;6.40;;;8.80;99.90;;;;;;5052580;28;20109;-69
2022/01/29 00:59:40;;;;;;;24.83;7.47;;;8.80;99.90;;;;;;5053831;28;20025;-71
2022/01/29 01:02:08;;;;;;;24.13;7.25;;;8.90;99.90;;;;;;5052170;28;20025;-69
2022/01/29 01:04:38;;;;;;;27.95;8.48;;;8.90;99.90;;;;;;5034606;28;20426;-71
2022/01/29 01:07:04;;;;;;;30.52;8.68;;;8.90;99.90;;;;;;5052496;28;20047;-70
2022/01/29 01:09:30;;;;;;;25.88;7.88;;;8.90;99.90;;;;;;5052534;28;20032;-73
2022/01/29 01:11:55;;;;;;;22.58;6.65;;;8.90;99.90;;;;;;5052544;28;20071;-73
2022/01/29 01:14:21;;;;;;;22.13;8.15;;;8.90;99.90;;;;;;5052753;28;20028;-69
2022/01/29 01:16:47;;;;;;;22.63;7.05;;;8.90;99.90;;;;;;5034474;28;20025;-67
2022/01/29 01:19:12;;;;;;;26.23;8.18;;;8.90;99.90;;;;;;5052455;28;20045;-69
2022/01/29 01:21:38;;;;;;;27.65;7.80;;;8.90;99.90;;;;;;5060411;28;20074;-72
2022/01/29 01:24:04;;;;;;;29.55;8.30;;;8.90;99.90;;;;;;5054287;28;20044;-70
2022/01/29 01:26:29;;;;;;;26.88;7.72;;;8.90;99.90;;;;;;5060703;28;20029;-74
2022/01/29 01:28:55;;;;;;;27.15;6.97;;;8.90;99.90;;;;;;5034556;28;20033;-73
2022/01/29 01:31:21;;;;;;;26.42;7.18;;;9.00;99.90;;;;;;5052283;28;20045;-74
2022/01/29 01:33:47;;;;;;;23.65;7.03;;;9.00;99.90;;;;;;5050539;28;20087;-73
2022/01/29 01:36:15;;;;;;;30.38;9.00;;;9.00;99.90;;;;;;5051990;28;20025;-72
2022/01/29 01:38:50;;;;;;;33.85;8.52;;;9.00;99.90;;;;;;5052121;28;20033;-71
2022/01/29 01:41:21;;;;;;;23.13;6.97;;;9.00;99.90;;;;;;5052325;28;20156;-71
2022/01/29 01:43:47;;;;;;;27.38;7.35;;;9.00;99.90;;;;;;5052016;28;20100;-71
2022/01/29 01:46:12;;;;;;;28.27;7.18;;;9.10;99.90;;;;;;5034256;28;20041;-72
2022/01/29 01:48:38;;;;;;;28.98;8.23;;;9.10;99.90;;;;;;5051760;28;20048;-70
2022/01/29 01:51:05;;;;;;;25.08;6.53;;;9.10;99.90;;;;;;5051886;28;20032;-74
2022/01/29 01:53:32;;;;;;;26.20;7.45;;;9.10;99.90;;;;;;5055144;28;20024;-70
2022/01/29 01:55:59;;;;;;;29.98;8.48;;;9.10;99.90;;;;;;5057297;28;20137;-72
2022/01/29 01:58:24;;;;;;;27.02;7.10;;;9.10;99.90;;;;;;5051763;28;20116;-71
2022/01/29 02:00:51;;;;;;;27.25;7.82;;;9.10;99.90;;;;;;5064089;28;20059;-73
2022/01/29 02:03:16;;;;;;;23.85;7.82;;;9.10;99.90;;;;;;5064194;28;20029;-69
2022/01/29 02:05:44;;;;;;;27.38;7.10;;;9.10;99.90;;;;;;5065075;28;20033;-69
2022/01/29 02:08:11;;;;;;;25.60;8.35;;;9.20;99.90;;;;;;5064184;28;20466;-69
2022/01/29 02:10:37;;;;;;;34.40;8.13;;;9.20;99.90;;;;;;5063360;28;20458;-70
2022/01/29 02:13:04;;;;;;;23.08;7.07;;;9.20;99.90;;;;;;5047125;28;20024;-72
2022/01/29 02:15:30;;;;;;;25.42;8.77;;;9.20;99.90;;;;;;5064065;28;20016;-69
2022/01/29 02:17:56;;;;;;;26.35;8.15;;;9.20;99.90;;;;;;5065000;28;20118;-68
2022/01/29 02:20:25;;;;;;;21.60;6.35;;;9.20;99.90;;;;;;5073944;28;20116;-69
2022/01/29 02:22:51;;;;;;;21.63;6.22;;;9.20;99.90;;;;;;5039810;28;20043;-69
2022/01/29 02:25:35;;;;;;;27.55;6.93;;;9.30;99.90;;;;;;5037338;28;20116;-68
2022/01/29 02:28:16;;;;;;;30.45;7.72;;;9.20;99.90;;;;;;5072320;28;20748;-68
2022/01/29 02:30:45;;;;;;;23.77;6.57;;;9.20;99.90;;;;;;5071836;28;20382;-69
2022/01/29 02:33:13;;;;;;;27.88;7.05;;;9.20;99.90;;;;;;5075352;28;20025;-69
2022/01/29 02:35:44;;;;;;;26.67;7.18;;;9.20;99.90;;;;;;5074511;28;20020;-69
2022/01/29 02:38:11;;;;;;;22.70;6.70;;;9.20;99.90;;;;;;5074891;28;20041;-69
2022/01/29 02:40:45;;;;;;;26.65;8.00;;;9.20;99.90;;;;;;5062625;28;20040;-70
2022/01/29 02:43:18;;;;;;;27.75;7.05;;;9.20;99.90;;;;;;5055277;28;20032;-70
2022/01/29 02:45:44;;;;;;;22.63;7.00;;;9.20;99.90;;;;;;5068391;28;20099;-68
2022/01/29 02:48:11;;;;;;;20.08;7.18;;;9.20;99.90;;;;;;5073659;28;20115;-67
2022/01/29 02:50:37;;;;;;;27.67;7.50;;;9.20;99.90;;;;;;5074902;28;20102;-69
2022/01/29 02:53:03;;;;;;;26.42;7.30;;;9.20;99.90;;;;;;5074908;28;20493;-68
2022/01/29 02:55:29;;;;;;;26.65;6.70;;;9.20;99.90;;;;;;5074439;28;20397;-69
2022/01/29 02:57:55;;;;;;;26.02;7.40;;;9.20;99.90;;;;;;5074898;28;20036;-69
2022/01/29 03:00:21;;;;;;;25.13;6.82;;;9.20;99.90;;;;;;5073509;28;20069;-69
2022/01/29 03:02:47;;;;;;;22.77;6.82;;;9.20;99.90;;;;;;5074742;28;20024;-69
2022/01/29 03:05:13;;;;;;;24.65;6.70;;;9.20;99.90;;;;;;5075044;28;20116;-69
2022/01/29 03:07:38;;;;;;;23.30;7.45;;;9.20;99.90;;;;;;5074656;28;20450;-69
2022/01/29 03:10:05;;;;;;;25.27;6.50;;;9.10;99.90;;;;;;5054322;28;20107;-69
2022/01/29 03:12:32;;;;;;;22.33;6.68;;;9.10;99.90;;;;;;5053223;28;20029;-69
2022/01/29 03:14:57;;;;;;;22.75;7.22;;;9.10;99.90;;;;;;5054419;28;20021;-69
2022/01/29 03:17:23;;;;;;;24.27;7.22;;;9.10;99.90;;;;;;5054566;28;20029;-69
2022/01/29 03:19:52;;;;;;;22.48;7.03;;;9.10;99.90;;;;;;5036550;28;20085;-69
2022/01/29 03:22:18;;;;;;;23.25;7.05;;;9.10;99.90;;;;;;5054676;28;20028;-68
2022/01/29 03:24:44;;;;;;;25.60;6.10;;;9.20;99.90;;;;;;5054196;28;20033;-68
2022/01/29 03:27:10;;;;;;;26.17;7.78;;;9.20;99.90;;;;;;5054321;28;20477;-69
2022/01/29 03:29:35;;;;;;;24.92;6.95;;;9.20;99.90;;;;;;5054550;28;20103;-69
2022/01/29 03:32:01;;;;;;;23.00;6.30;;;9.30;99.90;;;;;;5065436;28;20112;-68
2022/01/29 03:34:26;;;;;;;22.05;6.45;;;9.30;99.90;;;;;;5074508;28;20402;-68
2022/01/29 03:36:55;;;;;;;23.65;6.60;;;9.30;99.90;;;;;;5074217;28;20458;-68
2022/01/29 03:39:21;;;;;;;25.10;7.00;;;9.30;99.90;;;;;;5074009;28;20037;-68
2022/01/29 03:41:46;;;;;;;23.70;6.75;;;9.30;99.90;;;;;;5073799;28;20373;-68
2022/01/29 03:44:12;;;;;;;20.08;6.40;;;9.30;99.90;;;;;;5074207;28;20068;-68
2022/01/29 03:46:38;;;;;;;25.48;6.78;;;9.30;99.90;;;;;;5074178;28;20028;-68
2022/01/29 03:49:03;;;;;;;24.17;6.85;;;9.30;99.90;;;;;;5055702;28;20106;-68
2022/01/29 03:51:29;;;;;;;28.63;7.70;;;9.30;99.90;;;;;;5073461;28;20028;-68
2022/01/29 03:53:54;;;;;;;20.38;6.43;;;9.30;99.90;;;;;;5073680;28;20021;-68
2022/01/29 03:56:20;;;;;;;21.02;7.97;;;9.30;99.90;;;;;;5073781;28;20055;-68
2022/01/29 03:58:46;;;;;;;31.70;6.78;;;9.30;99.90;;;;;;5073555;28;20041;-68
2022/01/29 04:01:11;;;;;;;26.92;6.53;;;9.20;99.90;;;;;;5054766;28;20036;-68
2022/01/29 04:03:37;;;;;;;23.90;6.50;;;9.30;99.90;;;;;;5069721;28;20439;-68
2022/01/29 04:06:03;;;;;;;27.95;6.60;;;9.30;99.90;;;;;;5055578;28;20036;-68
2022/01/29 04:08:29;;;;;;;28.08;7.60;;;9.20;99.90;;;;;;5073319;28;20074;-68
2022/01/29 04:10:54;;;;;;;23.75;6.13;;;9.20;99.90;;;;;;5060718;28;20343;-68
2022/01/29 04:13:23;;;;;;;24.88;6.43;;;9.20;99.90;;;;;;5064572;28;20376;-68
2022/01/29 04:15:49;;;;;;;28.67;7.05;;;9.20;99.90;;;;;;5073334;28;20028;-68
2022/01/29 04:18:14;;;;;;;26.02;7.28;;;9.20;99.90;;;;;;5055325;28;20037;-68
2022/01/29 04:20:40;;;;;;;25.15;6.70;;;9.20;99.90;;;;;;5072814;28;20089;-68
2022/01/29 04:23:09;;;;;;;26.77;8.52;;;9.20;99.90;;;;;;5072326;28;20035;-68
2022/01/29 04:25:34;;;;;;;24.17;5.90;;;9.10;99.90;;;;;;5072589;28;20029;-69
2022/01/29 04:28:01;;;;;;;30.05;7.07;;;9.20;99.90;;;;;;5073161;28;20077;-69
2022/01/29 04:30:32;;;;;;;22.67;6.38;;;9.20;99.90;;;;;;5073106;28;20505;-69
2022/01/29 04:33:14;;;;;;;23.88;6.35;;;9.20;99.90;;;;;;5055275;28;20518;-69
2022/01/29 04:35:39;;;;;;;;;;;9.30;99.90;;;;;;5053647;28;20021;-68
2022/01/29 04:38:05;;;;;;;23.25;6.43;;;9.40;99.90;;;;;;5053090;28;20349;-69
2022/01/29 04:40:31;;;;;;;25.23;6.65;;;9.40;99.90;;;;;;5062983;28;20109;-68
2022/01/29 04:42:57;;;;;;;27.67;7.18;;;9.50;99.90;;;;;;5072757;28;20020;-69
2022/01/29 04:45:22;;;;;;;25.92;6.65;;;9.50;99.90;;;;;;5072904;28;20405;-69
2022/01/29 04:47:48;;;;;;;22.58;6.03;;;9.60;99.90;;;;;;5054654;28;20098;-68
2022/01/29 04:50:13;;;;;;;20.75;5.88;;;9.60;99.90;;;;;;5072223;28;20072;-68
2022/01/29 04:52:39;;;;;;;20.67;6.00;;;9.70;99.90;;;;;;5072683;28;20099;-68
2022/01/29 04:55:06;;;;;;;22.02;5.85;;;9.70;99.90;;;;;;5072539;28;20056;-68
2022/01/29 04:57:31;;;;;;;22.65;5.40;;;9.70;99.90;;;;;;5072582;28;20035;-69
2022/01/29 04:59:59;;;;;;;19.35;6.30;;;9.70;99.90;;;;;;5054577;28;20020;-68
2022/01/29 05:02:24;;;;;;;18.25;5.10;;;9.70;99.90;;;;;;5072273;28;20086;-69
2022/01/29 05:04:50;;;;;;;24.92;6.13;;;9.70;99.90;;;;;;5071807;28;20444;-69
2022/01/29 05:07:16;;;;;;;21.80;5.35;;;9.70;99.90;;;;;;5072818;28;20033;-68
2022/01/29 05:09:41;;;;;;;18.33;5.05;;;9.70;99.90;;;;;;5072436;28;20021;-69
2022/01/29 05:12:08;;;;;;;21.45;4.45;;;9.60;99.90;;;;;;5072474;28;20028;-68
2022/01/29 05:27:52;;;;;;;18.77;4.65;;;9.50;99.90;;;;;;5052182;28;20035;-69
2022/01/29 05:30:18;;;;;;;21.52;6.47;;;9.40;99.90;;;;;;5052420;28;20691;-68
2022/01/29 05:32:43;;;;;;;23.63;5.63;;;9.40;99.90;;;;;;5062788;28;20043;-69
2022/01/29 05:35:09;;;;;;;19.00;5.85;;;9.40;99.90;;;;;;5056901;28;20041;-68
2022/01/29 05:37:35;;;;;;;18.00;5.10;;;9.30;99.90;;;;;;5055808;28;20512;-69
2022/01/29 05:40:00;;;;;;;17.95;5.25;;;9.30;99.90;;;;;;5038147;28;20060;-69
2022/01/29 05:42:26;;;;;;;17.42;4.65;;;9.30;99.90;;;;;;5038392;28;20112;-69
2022/01/29 05:44:51;;;;;;;24.88;5.43;;;9.30;99.90;;;;;;5069020;28;20033;-68
2022/01/29 05:47:17;;;;;;;24.60;5.93;;;9.30;99.90;;;;;;5076246;28;20461;-69
2022/01/29 05:49:42;;;;;;;19.45;5.20;;;9.30;99.90;;;;;;5051827;28;20045;-69
2022/01/29 05:52:08;;;;;;;24.92;7.40;;;9.30;99.90;;;;;;5056564;28;20037;-69
2022/01/29 05:54:33;;;;;;;19.70;5.43;;;9.40;99.90;;;;;;5045935;28;20061;-69
2022/01/29 05:56:59;;;;;;;23.70;5.25;;;9.40;99.90;;;;;;5036322;28;20033;-68
2022/01/29 05:59:24;;;;;;;16.77;5.03;;;9.50;99.90;;;;;;5035691;28;20431;-68
2022/01/29 06:01:50;;;;;;;22.10;5.03;;;9.50;99.90;;;;;;5055250;28;20094;-69
2022/01/29 06:04:16;;;;;;;22.55;5.22;;;9.50;99.90;;;;;;5048727;28;20028;-69
2022/01/29 06:06:41;;;;;;;17.85;5.15;;;9.60;99.90;;;;;;5035943;28;20021;-69
2022/01/29 06:09:07;;;;;;;18.25;5.07;;;9.60;99.90;;;;;;5035911;28;20037;-69
2022/01/29 06:11:33;;;;;;;21.90;7.10;;;9.60;99.90;;;;;;5051315;28;20039;-69
2022/01/29 06:13:59;;;;;;;23.10;5.85;;;9.70;99.90;;;;;;5055708;28;20061;-68
2022/01/29 06:16:24;;;;;;;18.10;4.70;;;9.70;99.90;;;;;;5055722;28;20542;-69
2022/01/29 06:18:50;;;;;;;24.17;5.32;;;9.70;99.90;;;;;;5054474;28;20039;-68
2022/01/29 06:21:15;;;;;;;17.02;4.00;;;9.70;99.90;;;;;;5054857;28;20033;-68
2022/01/29 06:23:42;;;;;;;16.95;4.50;;;9.70;99.90;;;;;;5055836;28;20025;-68
2022/01/29 06:26:10;;;;;;;24.75;4.50;;;9.70;99.90;;;;;;5053661;28;20067;-67
2022/01/29 06:28:36;;;;;;;16.27;4.03;;;9.80;99.90;;;;;;5055465;28;20444;-67
2022/01/29 06:31:03;;;;;;;21.60;4.50;;;9.80;99.90;;;;;;5039862;28;20044;-68
2022/01/29 06:33:29;;;;;;;22.90;4.70;;;9.80;99.90;;;;;;5035448;28;20037;-68
2022/01/29 06:35:55;;;;;;;23.17;4.30;;;9.80;99.90;;;;;;5035401;28;20025;-67
2022/01/29 06:38:21;;;;;;;22.10;5.40;;;9.80;99.90;;;;;;5035165;28;20033;-68
2022/01/29 06:40:47;;;;;;;14.65;4.97;;;9.80;99.90;;;;;;5036527;28;20034;-68
2022/01/29 06:43:13;;;;;;;21.60;4.35;;;9.80;99.90;;;;;;5035727;28;20539;-68
2022/01/29 06:45:41;;;;;;;16.33;3.75;;;9.80;99.90;;;;;;5035536;28;20109;-68
2022/01/29 06:48:07;;;;;;;22.63;4.80;;;9.80;99.90;;;;;;5034639;28;20029;-68
2022/01/29 06:50:34;;;;;;;17.55;3.92;;;9.80;99.90;;;;;;5069449;28;20047;-68
2022/01/29 06:52:59;;;;;;;17.17;3.83;;;9.80;99.90;;;;;;5075487;28;20033;-68
2022/01/29 06:55:25;;;;;;;19.10;5.32;;;9.80;99.90;;;;;;5075069;28;20375;-68
2022/01/29 06:57:51;;;;;;;20.52;3.95;;;9.90;99.90;;;;;;5074551;28;20028;-68
2022/01/29 07:00:17;;;;;;;20.20;4.78;;;9.80;99.90;;;;;;5066322;28;20037;-68
2022/01/29 07:02:43;;;;;;;22.75;5.00;;;9.80;99.90;;;;;;5054884;28;20041;-68
2022/01/29 07:05:10;;;;;;;20.40;4.55;;;9.90;99.90;;;;;;5054409;28;20051;-68
2022/01/29 07:07:36;;;;;;;17.77;4.40;;;9.90;99.90;;;;;;5054341;28;20086;-68
2022/01/29 07:10:03;;;;;;;19.60;4.28;;;9.80;99.90;;;;;;5060667;28;20036;-69
2022/01/29 07:12:29;;;;;;;15.93;3.65;;;9.90;99.90;;;;;;5074723;28;20033;-68
2022/01/29 07:14:54;;;;;;;21.90;3.92;;;9.90;99.90;;;;;;5074719;28;20127;-68
2022/01/29 07:17:22;;;;;;;18.65;4.55;;;9.90;99.90;;;;;;5074630;28;20028;-68
2022/01/29 07:19:50;;;;;;;22.73;4.30;;;9.90;99.90;;;;;;5070463;28;20025;-68
2022/01/29 07:22:16;;;;;;;12.55;3.65;;;9.90;99.90;;;;;;5055926;28;20033;-69
2022/01/29 07:24:41;;;;;;;15.85;3.75;;;9.90;99.90;;;;;;5054506;28;20024;-69
2022/01/29 07:27:07;;;;;;;19.20;4.25;;;10.00;99.90;;;;;;5054200;28;20032;-69
2022/01/29 07:29:33;;;;;;;21.42;4.28;;;10.00;99.90;;;;;;5054173;28;20703;-69
2022/01/29 07:32:00;;;;;;;16.00;3.30;;;10.00;99.90;;;;;;5054157;28;20060;-69
2022/01/29 07:34:27;;;;;;;13.35;2.95;;;10.00;99.90;;;;;;5054350;28;20534;-68
2022/01/29 07:36:54;;;;;;;13.95;3.22;;;10.00;99.90;;;;;;5054271;28;20138;-69
2022/01/29 07:39:21;;;;;;;21.05;3.22;;;10.00;99.90;;;;;;5053918;28;20063;-68
2022/01/29 07:41:47;;;;;;;19.88;3.03;;;10.00;99.90;;;;;;5055007;28;20025;-68
2022/01/29 07:44:13;;;;;;;17.27;2.97;;;10.00;99.90;;;;;;5054294;28;20104;-67
2022/01/29 07:46:40;;;;;;;95.07;43.83;;;10.10;99.90;;;;;;5053943;28;20032;-68
2022/01/29 07:49:05;;;;;;;14.20;3.28;;;10.10;99.90;;;;;;5053578;28;20126;-68
2022/01/29 07:51:31;;;;;;;13.43;2.90;;;10.10;99.90;;;;;;5054593;28;20071;-68
2022/01/29 07:53:57;;;;;;;17.83;3.20;;;10.20;99.90;;;;;;5053903;28;20033;-68
2022/01/29 07:56:22;;;;;;;17.95;4.65;;;10.20;99.90;;;;;;5053635;28;20021;-68
2022/01/29 07:58:49;;;;;;;16.30;3.25;;;10.20;99.90;;;;;;5052814;28;20494;-70
2022/01/29 08:01:15;;;;;;;15.60;3.85;;;10.20;99.90;;;;;;5054561;28;20041;-68
2022/01/29 08:03:41;;;;;;;19.08;3.65;;;10.20;99.90;;;;;;5053879;28;20078;-70
2022/01/29 08:06:07;;;;;;;20.67;3.70;;;10.20;99.90;;;;;;5053438;28;20082;-69
2022/01/29 08:08:33;;;;;;;16.98;3.40;;;10.20;99.90;;;;;;5053684;28;20020;-70
2022/01/29 08:10:59;;;;;;;18.27;2.88;;;10.30;99.90;;;;;;5065810;28;20030;-69
2022/01/29 08:13:25;;;;;;;15.88;3.70;;;10.30;99.90;;;;;;5073575;28;20021;-68
2022/01/29 08:15:50;;;;;;;22.00;3.65;;;10.30;99.90;;;;;;5063430;28;20041;-68
2022/01/29 08:18:16;;;;;;;14.30;3.60;;;10.30;99.90;;;;;;5053393;28;20036;-68
2022/01/29 08:20:42;;;;;;;18.13;3.53;;;10.30;99.90;;;;;;5054323;28;20020;-69
2022/01/29 08:23:08;;;;;;;16.83;3.10;;;10.40;99.90;;;;;;5053235;28;20029;-69
2022/01/29 08:25:34;;;;;;;19.83;3.47;;;10.40;99.90;;;;;;5052737;28;20082;-68
2022/01/29 08:28:00;;;;;;;14.70;2.80;;;10.40;99.90;;;;;;5053009;28;20025;-68
2022/01/29 08:30:26;;;;;;;13.60;2.95;;;10.50;99.90;;;;;;5056299;28;20036;-67
2022/01/29 08:32:51;;;;;;;12.90;2.75;;;10.50;99.90;;;;;;5066162;28;20052;-67
2022/01/29 08:35:17;;;;;;;11.43;2.58;;;10.50;99.90;;;;;;5052349;28;20086;-67
2022/01/29 08:37:46;;;;;;;17.88;3.17;;;10.50;99.90;;;;;;5052614;28;20108;-68
2022/01/29 08:40:12;;;;;;;17.77;3.08;;;10.50;99.90;;;;;;5034791;28;20446;-67
2022/01/29 08:42:39;;;;;;;17.30;2.65;;;10.50;99.90;;;;;;5034714;28;20025;-68
2022/01/29 08:45:06;;;;;;;18.17;4.05;;;10.50;99.90;;;;;;5052709;28;20049;-68
2022/01/29 08:47:32;;;;;;;14.73;2.80;;;10.50;99.90;;;;;;5052659;28;20033;-68
2022/01/29 08:49:57;;;;;;;12.85;2.67;;;10.50;99.90;;;;;;5066459;28;20414;-68
2022/01/29 08:52:23;;;;;;;12.75;2.33;;;10.50;99.90;;;;;;5072461;28;20029;-67
2022/01/29 08:54:48;;;;;;;19.25;2.63;;;10.50;99.90;;;;;;5062470;28;20029;-67
2022/01/29 08:57:16;;;;;;;12.63;2.97;;;10.50;99.90;;;;;;5034686;28;20029;-67
2022/01/29 08:59:41;;;;;;;14.27;3.63;;;10.40;99.90;;;;;;5052392;28;20083;-69
2022/01/29 09:02:07;;;;;;;19.90;3.08;;;10.40;99.90;;;;;;5052695;28;20021;-68
2022/01/29 09:04:32;;;;;;;21.48;2.55;;;10.40;99.90;;;;;;5053284;28;20455;-69
2022/01/29 09:06:58;;;;;;;14.23;2.45;;;10.30;99.90;;;;;;5052462;28;20029;-68
2022/01/29 09:09:26;;;;;;;17.33;4.13;;;10.30;99.90;;;;;;5052035;28;20378;-68
2022/01/29 09:11:53;;;;;;;14.38;2.20;;;10.30;99.90;;;;;;5066979;28;20060;-68
2022/01/29 09:14:20;;;;;;;14.63;2.65;;;10.30;99.90;;;;;;5071113;28;20362;-68
2022/01/29 09:16:45;;;;;;;22.23;3.50;;;10.30;99.90;;;;;;5072198;28;20020;-68
2022/01/29 09:19:11;;;;;;;20.13;3.15;;;10.30;99.90;;;;;;5072062;28;20427;-68
2022/01/29 09:21:37;;;;;;;14.23;3.60;;;10.40;99.90;;;;;;5063011;28;20526;-68
2022/01/29 09:24:03;;;;;;;16.20;2.38;;;10.50;99.90;;;;;;5055817;28;20403;-69
2022/01/29 09:26:28;;;;;;;19.65;2.70;;;10.60;99.90;;;;;;5066376;28;20078;-68
2022/01/29 09:28:54;;;;;;;24.73;3.83;;;10.60;99.90;;;;;;5072533;28;20055;-68
2022/01/29 09:31:21;;;;;;;17.02;2.35;;;10.50;99.90;;;;;;5068819;28;20029;-69
2022/01/29 09:33:46;;;;;;;15.43;2.75;;;10.50;99.90;;;;;;5052490;28;20040;-69
2022/01/29 09:36:12;;;;;;;13.55;2.30;;;10.40;99.90;;;;;;5054482;28;20037;-68
2022/01/29 09:38:37;;;;;;;16.15;2.83;;;10.50;99.90;;;;;;5033904;28;20044;-69
2022/01/29 09:41:04;;;;;;;12.02;3.15;;;10.60;99.90;;;;;;5052672;28;20035;-67
2022/01/29 09:43:32;;;;;;;17.98;2.90;;;10.70;99.90;;;;;;5052219;28;20083;-67
2022/01/29 09:45:58;;;;;;;20.83;3.42;;;11.00;99.90;;;;;;5052966;28;20044;-68
2022/01/29 09:48:27;;;;;;;18.42;2.92;;;11.20;99.90;;;;;;5053909;28;20032;-68
2022/01/29 09:50:53;;;;;;;14.88;2.55;;;11.50;99.90;;;;;;5060598;28;20055;-68
2022/01/29 09:53:19;;;;;;;13.98;3.20;;;11.70;99.90;;;;;;5051946;28;20029;-68
2022/01/29 09:55:46;;;;;;;20.52;2.90;;;11.90;99.90;;;;;;5067876;28;20032;-68
2022/01/29 09:58:12;;;;;;;19.13;3.17;;;12.10;99.90;;;;;;5067129;28;20033;-69
2022/01/29 10:00:38;;;;;;;14.52;2.97;;;12.40;99.90;;;;;;5059163;28;20055;-71
2022/01/29 10:03:10;;;;;;;18.58;3.25;;;12.80;99.90;;;;;;5051964;28;20025;-69
2022/01/29 10:05:48;;;;;;;17.15;2.88;;;12.80;99.90;;;;;;5034051;28;20056;-69
2022/01/29 10:08:14;;;;;;;12.85;2.28;;;12.90;99.90;;;;;;5052124;28;20040;-68
2022/01/29 10:10:51;;;;;;;15.30;2.70;;;13.00;99.90;;;;;;5051962;28;20033;-69
2022/01/29 10:13:30;;;;;;;15.90;2.75;;;13.20;99.90;;;;;;5051782;28;20021;-69
2022/01/29 10:16:08;;;;;;;10.77;2.50;;;13.40;99.90;;;;;;5052897;28;20442;-69
2022/01/29 10:18:35;;;;;;;12.60;2.05;;;13.60;99.90;;;;;;5033729;28;20521;-68
2022/01/29 10:21:12;;;;;;;10.73;2.05;;;13.70;99.90;;;;;;5051765;28;20086;-68
2022/01/29 10:23:39;;;;;;;10.90;2.08;;;13.70;99.90;;;;;;5054941;28;20021;-68
2022/01/29 10:26:05;;;;;;;10.15;1.90;;;13.60;99.90;;;;;;5055357;28;20102;-68
2022/01/29 10:28:32;;;;;;;13.98;2.33;;;13.60;99.90;;;;;;5055554;28;20028;-68
2022/01/29 10:31:03;;;;;;;14.32;2.53;;;13.80;99.90;;;;;;5055080;28;20378;-72
2022/01/29 10:33:36;;;;;;;14.57;2.45;;;14.00;99.90;;;;;;5056824;28;20102;-70
2022/01/29 10:36:04;;;;;;;11.90;2.00;;;14.00;99.90;;;;;;5060075;28;20190;-69
2022/01/29 10:38:41;;;;;;;14.57;2.25;;;13.60;99.90;;;;;;5055136;28;20032;-69
2022/01/29 10:41:24;;;;;;;12.57;2.13;;;13.30;99.90;;;;;;5055116;28;20025;-70
2022/01/29 10:44:12;;;;;;;10.82;2.60;;;13.10;99.90;;;;;;5055182;28;20032;-73
2022/01/29 10:46:41;;;;;;;11.73;2.13;;;13.10;99.90;;;;;;5055302;28;20021;-68
2022/01/29 10:49:14;;;;;;;16.50;2.47;;;13.30;99.90;;;;;;5061713;28;20084;-71
2022/01/29 10:51:40;;;;;;;12.25;2.42;;;13.40;99.90;;;;;;5074406;28;20043;-69
2022/01/29 10:54:19;;;;;;;12.23;2.10;;;13.50;99.90;;;;;;5061738;28;20451;-71
2022/01/29 10:56:51;;;;;;;12.27;2.55;;;13.60;99.90;;;;;;5054543;28;20025;-70
2022/01/29 10:59:17;;;;;;;11.65;2.28;;;14.00;99.90;;;;;;5051352;28;20079;-74
2022/01/29 11:01:53;;;;;;;12.27;2.10;;;14.20;99.90;;;;;;5038361;28;20780;-73
2022/01/29 11:04:19;;;;;;;14.38;3.08;;;14.20;99.90;;;;;;5054557;28;20053;-73
2022/01/29 11:06:46;;;;;;;10.35;2.20;;;14.00;99.90;;;;;;5055383;28;20067;-68
2022/01/29 11:09:13;;;;;;;8.93;2.22;;;14.00;99.90;;;;;;5048984;28;20048;-71
2022/01/29 11:11:45;;;;;;;13.55;2.20;;;13.90;99.90;;;;;;5074604;28;20860;-68
2022/01/29 11:14:13;;;;;;;16.85;3.00;;;13.90;99.90;;;;;;5074471;28;20056;-71
2022/01/29 11:16:39;;;;;;;14.40;2.22;;;14.00;99.90;;;;;;5072537;28;20024;-69
2022/01/29 11:19:07;;;;;;;14.98;2.67;;;14.00;99.90;;;;;;5053985;28;20393;-67
2022/01/29 11:21:33;;;;;;;12.27;2.30;;;14.00;99.90;;;;;;5060761;28;20025;-71
2022/01/29 11:24:00;;;;;;;15.45;3.20;;;14.00;99.90;;;;;;5040098;28;20123;-71
2022/01/29 11:26:29;;;;;;;16.95;2.58;;;14.20;99.90;;;;;;5059199;28;20070;-70
2022/01/29 11:29:32;;;;;;;17.05;2.28;;;14.10;99.90;;;;;;5061052;28;20035;-73
2022/01/29 11:32:26;;;;;;;12.18;2.10;;;13.90;99.90;;;;;;5064179;28;20086;-72
2022/01/29 11:35:10;;;;;;;13.80;3.13;;;13.70;99.90;;;;;;5056832;28;20084;-73
2022/01/29 11:37:38;;;;;;;24.17;2.70;;;13.50;99.90;;;;;;5062250;28;20028;-69
2022/01/29 11:40:17;;;;;;;13.65;2.17;;;13.60;99.90;;;;;;5056391;28;20285;-69
2022/01/29 11:43:21;;;;;;;17.55;2.53;;;13.90;99.90;;;;;;5062690;28;20017;-69
2022/01/29 11:45:53;;;;;;;18.48;2.42;;;14.20;99.90;;;;;;5058949;28;20037;-69
2022/01/29 11:48:25;;;;;;;12.43;2.47;;;14.30;99.90;;;;;;5062676;28;20037;-71
2022/01/29 11:50:52;;;;;;;;;;;14.10;99.90;;;;;;5048373;28;20102;-70
2022/01/29 11:53:19;;;;;;;10.02;2.88;;;14.10;99.90;;;;;;5059174;28;19908;-70
2022/01/29 11:55:47;;;;;;;17.20;3.92;;;14.00;99.90;;;;;;5060718;28;20071;-72
2022/01/29 11:58:15;;;;;;;17.02;3.70;;;13.90;99.90;;;;;;5060869;28;20054;-71
2022/01/29 12:00:41;;;;;;;18.27;3.13;;;13.90;99.90;;;;;;5053951;28;20370;-68
2022/01/29 12:03:27;;;;;;;19.35;2.67;;;14.10;99.90;;;;;;5055006;28;20556;-68
2022/01/29 12:06:22;;;;;;;20.42;3.47;;;14.10;99.90;;;;;;5069909;28;20021;-71
2022/01/29 12:09:09;;;;;;;14.18;2.60;;;13.90;99.90;;;;;;5062247;28;20044;-69
2022/01/29 12:11:38;;;;;;;15.35;2.85;;;13.90;99.90;;;;;;5058214;28;20025;-70
2022/01/29 12:14:13;;;;;;;16.23;3.70;;;13.80;99.90;;;;;;5069940;28;20033;-69
2022/01/29 12:16:54;;;;;;;23.13;3.58;;;13.60;99.90;;;;;;5060765;28;20021;-70
2022/01/29 12:19:34;;;;;;;19.83;3.90;;;13.40;99.90;;;;;;5063664;28;20493;-69
2022/01/29 12:22:00;;;;;;;15.35;3.13;;;13.20;99.90;;;;;;5057492;28;20037;-71
2022/01/29 12:24:26;;;;;;;17.55;2.97;;;13.10;99.90;;;;;;5070655;28;20028;-72
2022/01/29 12:26:58;;;;;;;10.38;2.10;;;13.20;99.90;;;;;;5063570;28;20082;-69
2022/01/29 12:29:23;;;;;;;10.50;2.60;;;13.30;99.90;;;;;;5063369;28;20439;-73
2022/01/29 12:31:52;;;;;;;15.30;2.55;;;13.50;99.90;;;;;;5055308;28;20179;-69
2022/01/29 12:34:20;;;;;;;14.93;3.10;;;13.70;99.90;;;;;;5053038;28;20028;-72
2022/01/29 12:36:49;;;;;;;14.93;3.22;;;13.70;99.90;;;;;;5061381;28;20026;-73
2022/01/29 12:39:21;;;;;;;17.60;3.47;;;13.80;99.90;;;;;;5039199;28;20041;-68
2022/01/29 12:42:06;;;;;;;21.15;3.47;;;13.80;99.90;;;;;;5067205;28;20398;-68
2022/01/29 12:44:32;;;;;;;20.23;3.53;;;13.80;99.90;;;;;;5059135;28;20043;-68
2022/01/29 12:46:58;;;;;;;17.70;3.03;;;13.80;99.90;;;;;;5072546;28;20541;-68
2022/01/29 12:49:23;;;;;;;12.95;2.42;;;13.70;99.90;;;;;;5056263;28;20522;-68
2022/01/29 12:51:59;;;;;;;15.43;2.90;;;13.70;99.90;;;;;;5057321;28;20765;-68
2022/01/29 12:54:28;;;;;;;17.80;3.58;;;13.80;99.90;;;;;;5058038;28;20031;-68
2022/01/29 12:56:55;;;;;;;14.68;2.67;;;13.80;99.90;;;;;;5052579;28;20031;-68
2022/01/29 12:59:21;;;;;;;14.75;2.35;;;13.60;99.90;;;;;;5034434;28;20371;-68